Time;durP1;ratioP1;P1;durP2;ratioP2;P2;SDS_P1;SDS_P2;PMS_P1;PMS_P2;Temp;Humidity;BMP_temperature;BMP_pressure;BME280_temperature;BME280_humidity;BME280_pressure;Samples;Min_cycle;Max_cycle;Signal;HPM_P1;HPM_P2
2023/05/28 00:04:39;;;;;;;9.07;3.10;;;;;;;12.99;49.38;98240.50;10581389;27;20251;-71
2023/05/28 00:10:00;;;;;;;8.32;2.65;;;;;;;12.94;49.71;98241.59;10624546;27;20043;-71
2023/05/28 00:15:21;;;;;;;7.55;2.90;;;;;;;12.92;49.76;98241.44;10595008;27;20085;-70
2023/05/28 00:20:42;;;;;;;7.28;2.50;;;;;;;12.86;49.63;98231.31;10624592;27;20112;-70
2023/05/28 00:26:03;;;;;;;6.68;2.70;;;;;;;12.84;49.67;98233.97;10594829;27;20089;-71
2023/05/28 00:31:24;;;;;;;6.93;2.80;;;;;;;12.76;49.93;98227.84;10608980;27;20185;-70
2023/05/28 00:36:45;;;;;;;7.95;2.53;;;;;;;12.66;49.97;98221.56;10623867;27;20067;-71
2023/05/28 00:42:10;;;;;;;10.48;2.85;;;;;;;12.64;50.42;98227.00;10608590;28;20043;-71
2023/05/28 00:47:31;;;;;;;6.47;2.65;;;;;;;12.58;50.64;98215.41;10594888;28;20118;-70
2023/05/28 00:52:52;;;;;;;6.80;2.22;;;;;;;12.51;50.92;98219.13;10594035;28;20070;-70
2023/05/28 00:58:15;;;;;;;5.43;2.35;;;;;;;12.48;50.68;98211.94;10608278;28;20123;-70
2023/05/28 01:03:39;;;;;;;6.73;2.57;;;;;;;12.44;51.20;98209.56;10598763;27;20078;-70
2023/05/28 01:09:00;;;;;;;5.60;2.42;;;;;;;12.40;50.71;98203.72;10588931;27;20043;-70
2023/05/28 01:14:20;;;;;;;6.97;2.40;;;;;;;12.26;51.23;98202.75;10631796;27;20123;-70
2023/05/28 01:19:42;;;;;;;5.95;2.60;;;;;;;12.14;51.58;98205.44;10602005;27;20111;-71
2023/05/28 01:25:09;;;;;;;5.43;2.40;;;;;;;12.03;52.06;98200.50;10615683;27;20449;-71
2023/05/28 01:30:32;;;;;;;7.97;2.63;;;;;;;11.98;52.26;98199.50;10589076;27;20122;-71
2023/05/28 01:35:54;;;;;;;5.45;2.47;;;;;;;11.91;52.25;98194.06;10601843;27;20119;-71
2023/05/28 01:41:15;;;;;;;8.10;2.45;;;;;;;11.81;53.35;98190.56;10600877;27;20114;-71
2023/05/28 01:46:35;;;;;;;6.63;2.72;;;;;;;11.65;52.82;98188.06;10601020;27;20145;-71
2023/05/28 01:51:56;;;;;;;6.90;2.70;;;;;;;11.51;52.96;98175.16;10600505;27;20485;-71
2023/05/28 01:57:18;;;;;;;9.85;2.92;;;;;;;11.39;53.37;98170.19;10600449;27;20164;-71
2023/05/28 02:02:39;;;;;;;8.48;2.35;;;;;;;11.32;53.33;98170.34;10599702;27;20303;-71
2023/05/28 02:08:01;;;;;;;8.02;2.92;;;;;;;11.22;53.76;98166.81;10614196;27;20118;-71
2023/05/28 02:13:22;;;;;;;8.15;2.88;;;;;;;11.20;54.13;98172.25;10613402;27;20119;-71
2023/05/28 02:18:49;;;;;;;7.43;3.20;;;;;;;11.17;54.19;98172.09;10585305;27;20045;-71
2023/05/28 02:24:10;;;;;;;6.53;2.72;;;;;;;11.10;53.91;98172.28;10599491;27;20039;-71
2023/05/28 02:29:30;;;;;;;8.45;2.55;;;;;;;11.05;54.50;98167.69;10599074;27;20153;-71
2023/05/28 02:34:54;;;;;;;7.88;2.70;;;;;;;11.00;54.75;98165.94;10613174;27;20043;-71
2023/05/28 02:40:16;;;;;;;8.25;2.92;;;;;;;10.96;54.75;98169.16;10613770;27;20110;-71
2023/05/28 02:45:36;;;;;;;12.18;2.85;;;;;;;10.91;55.02;98164.63;10598983;27;20093;-71
2023/05/28 02:50:57;;;;;;;5.60;2.60;;;;;;;10.88;55.17;98171.38;10584345;27;20169;-70
2023/05/28 02:56:41;;;;;;;7.20;2.65;;;;;;;10.83;55.66;98175.19;10577752;27;20540;-70
2023/05/28 03:02:02;;;;;;;9.95;3.00;;;;;;;10.78;55.62;98165.78;10611760;27;20492;-71
2023/05/28 03:07:22;;;;;;;9.27;2.72;;;;;;;10.75;55.91;98177.41;10597641;27;20114;-71
2023/05/28 03:12:43;;;;;;;8.45;2.90;;;;;;;10.74;56.21;98179.47;10597463;27;20429;-71
2023/05/28 03:18:04;;;;;;;7.53;3.13;;;;;;;10.75;56.19;98171.81;10611439;27;20119;-71
2023/05/28 03:23:29;;;;;;;13.57;5.68;;;;;;;10.77;56.19;98178.28;10611096;27;20070;-70
2023/05/28 03:29:01;;;;;;;18.10;7.07;;;;;;;10.81;56.27;98175.06;10597273;27;20520;-71
2023/05/28 03:34:36;;;;;;;18.70;8.27;;;;;;;10.86;56.68;98171.22;10598714;27;20063;-70
2023/05/28 03:39:59;;;;;;;24.77;8.15;;;;;;;10.98;56.83;98172.09;10610869;27;20114;-71
2023/05/28 03:45:19;;;;;;;40.65;16.00;;;;;;;11.05;56.94;98176.81;10596273;27;20126;-70
2023/05/28 03:50:40;;;;;;;27.23;10.55;;;;;;;11.13;56.69;98180.19;10581595;27;20047;-71
2023/05/28 03:56:01;;;;;;;20.17;8.13;;;;;;;11.28;56.64;98175.63;10595778;27;20066;-71
2023/05/28 04:01:23;;;;;;;23.90;8.90;;;;;;;11.34;56.73;98164.88;10595404;27;20043;-70
2023/05/28 04:06:45;;;;;;;23.75;8.50;;;;;;;11.54;56.78;98174.69;10594998;27;20515;-70
2023/05/28 04:12:06;;;;;;;16.38;7.90;;;;;;;11.78;56.74;98175.69;10595248;27;20066;-71
2023/05/28 04:17:27;;;;;;;14.82;6.80;;;;;;;11.93;56.33;98164.16;10608981;27;20039;-71
2023/05/28 04:22:48;;;;;;;11.57;5.63;;;;;;;12.12;56.42;98157.75;10595039;27;20115;-70
2023/05/28 04:28:11;;;;;;;15.30;5.78;;;;;;;12.38;56.32;98163.66;10594684;27;20454;-71
2023/05/28 04:33:32;;;;;;;13.93;5.78;;;;;;;12.60;55.76;98162.34;10608734;27;20160;-71
2023/05/28 04:38:54;;;;;;;12.57;5.32;;;;;;;12.86;55.61;98152.88;10593692;27;20169;-70
2023/05/28 04:44:16;;;;;;;10.15;4.50;;;;;;;13.09;55.21;98157.09;10594311;28;20119;-70
2023/05/28 04:49:36;;;;;;;11.88;3.90;;;;;;;13.53;55.17;98159.22;10609089;28;20063;-71
2023/05/28 04:54:57;;;;;;;8.32;4.28;;;;;;;13.83;54.14;98171.59;10609201;28;20157;-70
2023/05/28 05:00:19;;;;;;;10.07;3.78;;;;;;;13.98;53.47;98173.91;10580827;28;20501;-70
2023/05/28 05:05:40;;;;;;;10.57;4.30;;;;;;;14.30;52.32;98174.41;10608616;28;20067;-71
2023/05/28 05:11:01;;;;;;;10.82;4.22;;;;;;;14.63;52.38;98168.66;10608563;28;20070;-70
2023/05/28 05:16:22;;;;;;;9.55;3.95;;;;;;;14.93;51.62;98169.69;10594281;28;20054;-70
2023/05/28 05:21:44;;;;;;;7.88;3.50;;;;;;;15.40;50.72;98161.06;10594362;28;20062;-71
2023/05/28 05:27:06;;;;;;;10.80;4.20;;;;;;;15.64;49.32;98176.50;10608429;28;20066;-70
2023/05/28 05:32:27;;;;;;;9.88;3.83;;;;;;;15.88;48.49;98165.06;10593933;28;20050;-71
2023/05/28 05:37:48;;;;;;;11.98;4.40;;;;;;;16.42;47.87;98169.31;10609491;28;20089;-71
2023/05/28 05:43:12;;;;;;;10.43;3.67;;;;;;;16.77;46.20;98161.25;10595864;28;20370;-71
2023/05/28 05:48:33;;;;;;;9.02;3.33;;;;;;;17.35;45.44;98165.47;10594796;27;20498;-70
2023/05/28 05:53:53;;;;;;;7.88;3.35;;;;;;;18.01;44.30;98163.59;10601121;27;20039;-71
2023/05/28 05:59:14;;;;;;;8.68;3.45;;;;;;;18.36;43.32;98159.47;10600771;27;20054;-71
2023/05/28 06:04:36;;;;;;;7.82;3.72;;;;;;;19.03;41.86;98165.88;10586776;27;20584;-71
2023/05/28 06:09:59;;;;;;;7.65;3.55;;;;;;;19.55;40.84;98166.53;10630066;27;20118;-71
2023/05/28 06:15:27;;;;;;;9.05;4.00;;;;;;;19.88;39.57;98162.13;10601091;27;20050;-71
2023/05/28 06:20:49;;;;;;;9.30;4.05;;;;;;;20.37;39.07;98161.81;10614429;27;20063;-71
2023/05/28 06:26:10;;;;;;;7.88;3.67;;;;;;;20.85;37.85;98162.81;10614031;27;20050;-71
2023/05/28 06:31:32;;;;;;;9.15;3.83;;;;;;;21.06;36.84;98157.81;10613940;27;20054;-71
2023/05/28 06:36:53;;;;;;;8.63;3.60;;;;;;;21.67;36.15;98163.31;10629144;27;20050;-71
2023/05/28 06:42:14;;;;;;;12.32;4.20;;;;;;;21.80;34.15;98158.72;10599269;27;20039;-71
2023/05/28 06:47:54;;;;;;;9.57;4.05;;;;;;;22.38;33.55;98163.94;10616088;27;20066;-71
2023/05/28 06:53:15;;;;;;;7.72;3.30;;;;;;;22.96;33.52;98164.81;10598763;27;20108;-71
2023/05/28 06:58:36;;;;;;;9.85;3.85;;;;;;;22.92;32.09;98156.16;10598873;27;20533;-71
2023/05/28 07:04:15;;;;;;;7.50;3.90;;;;;;;23.37;31.79;98160.13;10614861;27;20055;-71
2023/05/28 07:09:40;;;;;;;10.63;3.55;;;;;;;24.24;30.90;98158.47;10598630;27;20047;-71
2023/05/28 07:15:03;;;;;;;;;;;;;;;24.63;29.63;98151.41;10612428;27;20043;-71
2023/05/28 07:20:26;;;;;;;9.80;3.58;;;;;;;24.95;29.07;98156.97;10627296;27;20042;-70
2023/05/28 07:25:53;;;;;;;9.15;3.90;;;;;;;25.02;28.18;98167.13;10598555;27;20039;-71
2023/05/28 07:31:15;;;;;;;7.13;3.72;;;;;;;25.38;27.96;98158.41;10583348;27;20043;-71
2023/05/28 07:36:38;;;;;;;8.82;3.50;;;;;;;25.62;27.65;98163.06;10597413;27;20393;-72
2023/05/28 07:42:00;;;;;;;10.50;3.90;;;;;;;25.56;27.25;98160.09;10596676;27;20040;-71
2023/05/28 07:47:31;;;;;;;6.20;2.80;;;;;;;25.76;26.44;98162.53;10598150;27;20039;-71
2023/05/28 07:52:55;;;;;;;7.45;3.25;;;;;;;25.85;25.63;98170.53;10611115;27;20103;-71
2023/05/28 07:58:17;;;;;;;7.10;2.80;;;;;;;26.18;25.50;98156.69;10610301;27;20082;-71
2023/05/28 08:03:39;;;;;;;6.60;2.70;;;;;;;25.81;24.59;98159.06;10596497;27;20078;-71
2023/05/28 08:09:02;;;;;;;8.10;3.13;;;;;;;26.43;24.95;98152.69;10595728;27;20480;-71
2023/05/28 08:14:23;;;;;;;;;;;;;;;27.10;24.15;98141.91;10581621;27;20039;-71
2023/05/28 08:19:47;;;;;;;5.00;2.50;;;;;;;26.67;23.25;98143.66;10609480;27;19945;-71
2023/05/28 08:25:40;;;;;;;6.13;2.20;;;;;;;27.18;23.96;98138.41;10604686;27;20046;-71
2023/05/28 08:31:09;;;;;;;6.05;2.47;;;;;;;27.27;22.90;98136.31;10596330;27;20066;-71
2023/05/28 08:36:57;;;;;;;6.95;2.38;;;;;;;27.20;22.61;98134.84;10609268;27;20100;-71
2023/05/28 08:42:27;;;;;;;7.03;2.80;;;;;;;28.17;21.89;98138.28;10595652;27;20046;-71
2023/05/28 08:47:51;;;;;;;5.32;2.60;;;;;;;27.74;22.13;98137.38;10595988;28;20043;-71
2023/05/28 08:53:18;;;;;;;6.25;3.00;;;;;;;27.44;21.93;98132.16;10596946;28;20051;-71
2023/05/28 08:58:40;;;;;;;6.57;2.17;;;;;;;27.51;21.63;98127.91;10609401;28;20050;-71
2023/05/28 09:04:01;;;;;;;;;;;;;;;27.92;21.25;98125.28;10595267;27;20485;-71
2023/05/28 09:09:31;;;;;;;7.00;1.77;;;;;;;28.12;21.35;98124.66;10609880;28;20386;-71
2023/05/28 09:14:52;;;;;;;7.33;2.50;;;;;;;28.43;20.66;98116.88;10623857;28;20419;-71
2023/05/28 09:20:16;;;;;;;5.57;2.72;;;;;;;28.15;20.72;98114.63;10623616;28;20039;-71
2023/05/28 09:25:38;;;;;;;6.38;2.60;;;;;;;27.97;20.94;98111.66;10614534;27;20392;-71
2023/05/28 09:31:09;;;;;;;9.35;2.63;;;;;;;28.05;21.18;98111.72;10616377;27;20050;-71
2023/05/28 09:36:30;;;;;;;5.63;2.63;;;;;;;27.70;21.71;98102.97;10631582;27;20070;-72
2023/05/28 09:42:09;;;;;;;6.50;2.45;;;;;;;27.66;22.22;98106.50;10615923;27;20043;-72
2023/05/28 09:47:30;;;;;;;8.05;2.97;;;;;;;28.37;22.19;98105.38;10617692;27;20055;-72
2023/05/28 09:52:54;;;;;;;;;;;;;;;28.81;21.89;98113.34;10631331;27;20039;-72
2023/05/28 09:58:15;;;;;;;6.03;2.50;;;;;;;28.95;21.52;98116.28;10615255;27;19930;-72
2023/05/28 10:03:47;;;;;;;5.60;2.50;;;;;;;28.56;21.52;98098.25;10614793;27;20055;-72
2023/05/28 10:09:08;;;;;;;;;;;;;;;28.49;21.84;98096.81;10601134;27;20039;-72
2023/05/28 10:14:29;;;;;;;6.50;2.35;;;;;;;29.01;21.59;98093.28;10600650;27;19988;-72
2023/05/28 10:19:50;;;;;;;7.18;2.25;;;;;;;28.58;20.95;98080.31;10614489;27;20476;-72
2023/05/28 10:25:11;;;;;;;4.68;2.40;;;;;;;27.77;21.58;98081.47;10629846;27;20084;-72
2023/05/28 10:30:33;;;;;;;5.15;2.60;;;;;;;26.63;22.07;98074.19;10599791;27;20035;-71
2023/05/28 10:35:57;;;;;;;9.02;2.67;;;;;;;25.99;23.06;98086.38;10599170;27;20047;-71
2023/05/28 10:41:19;;;;;;;6.45;2.35;;;;;;;26.32;22.86;98064.56;10613610;27;20110;-71
2023/05/28 10:46:40;;;;;;;;;;;;;;;26.57;22.70;98074.13;10614041;27;20059;-72
2023/05/28 10:52:03;;;;;;;6.82;2.15;;;;;;;27.22;22.24;98066.81;10628657;27;20015;-72
2023/05/28 10:57:25;;;;;;;4.97;1.75;;;;;;;26.23;23.01;98058.03;10628264;27;20040;-71
2023/05/28 11:02:48;;;;;;;4.20;1.93;;;;;;;26.73;23.00;98060.69;10598745;27;20055;-72
2023/05/28 11:08:09;;;;;;;5.05;1.70;;;;;;;27.00;22.59;98058.75;10584580;27;20269;-72
2023/05/28 11:13:30;;;;;;;5.63;1.75;;;;;;;27.29;22.22;98058.97;10598438;27;20043;-72
2023/05/28 11:19:04;;;;;;;7.57;2.03;;;;;;;27.33;21.95;98076.19;10597623;27;20097;-71
2023/05/28 11:24:26;;;;;;;6.05;2.25;;;;;;;27.17;22.03;98058.91;10584071;27;20043;-71
2023/05/28 11:29:48;;;;;;;4.40;2.00;;;;;;;27.04;21.79;98058.81;10611701;27;20047;-72
2023/05/28 11:35:11;;;;;;;6.30;1.83;;;;;;;26.81;22.07;98051.44;10597362;27;20405;-72
2023/05/28 11:40:35;;;;;;;5.80;1.90;;;;;;;26.57;22.06;98054.09;10611481;27;20039;-71
2023/05/28 11:45:57;;;;;;;6.53;2.22;;;;;;;26.18;22.16;98051.56;10625372;27;20050;-71
2023/05/28 11:51:18;;;;;;;;;;;;;;;26.19;22.33;98035.09;10596976;27;20091;-72
2023/05/28 11:56:40;;;;;;;4.75;1.88;;;;;;;26.46;21.52;98044.72;10596975;27;19919;-71
2023/05/28 12:02:14;;;;;;;5.07;1.80;;;;;;;26.27;21.60;98046.63;10610071;27;20043;-71
2023/05/28 12:07:36;;;;;;;7.53;2.10;;;;;;;26.08;22.17;98042.16;10596193;27;20042;-71
2023/05/28 12:12:57;;;;;;;6.43;2.47;;;;;;;25.91;21.94;98038.38;10596069;27;20047;-71
2023/05/28 12:18:20;;;;;;;5.45;1.67;;;;;;;25.71;21.47;98038.84;10625260;27;20121;-71
2023/05/28 12:23:41;;;;;;;4.95;2.22;;;;;;;25.32;22.42;98037.59;10595548;27;20043;-71
2023/05/28 12:29:03;;;;;;;6.50;1.90;;;;;;;25.68;22.40;98038.09;10595421;27;20039;-71
2023/05/28 12:34:24;;;;;;;5.50;1.92;;;;;;;25.82;22.28;98023.25;10624835;27;20163;-71
2023/05/28 12:39:45;;;;;;;4.53;1.77;;;;;;;26.52;22.00;98011.13;10624436;27;20046;-72
2023/05/28 12:45:07;;;;;;;3.15;1.70;;;;;;;25.89;21.06;98004.78;10609202;27;20134;-72
2023/05/28 12:50:27;;;;;;;5.05;1.70;;;;;;;25.56;22.29;98011.47;10609050;28;20044;-71
2023/05/28 12:55:48;;;;;;;3.08;1.45;;;;;;;25.59;22.34;98012.97;10608906;28;20046;-71
2023/05/28 13:01:10;;;;;;;5.25;1.85;;;;;;;25.43;22.34;97995.59;10631696;27;20050;-71
2023/05/28 13:06:31;;;;;;;3.95;1.85;;;;;;;25.75;22.53;97987.44;10617169;27;20070;-72
2023/05/28 13:11:52;;;;;;;3.47;1.60;;;;;;;25.73;22.47;97990.28;10617207;27;20066;-71
2023/05/28 13:17:13;;;;;;;8.82;1.80;;;;;;;25.36;22.31;97994.78;10602647;27;20087;-71
2023/05/28 13:22:36;;;;;;;5.85;1.75;;;;;;;24.45;23.07;97997.72;10632209;27;20036;-71
2023/05/28 13:27:57;;;;;;;5.82;1.95;;;;;;;23.72;24.01;97999.19;10603062;27;20062;-71
2023/05/28 13:33:22;;;;;;;4.50;2.00;;;;;;;23.22;25.02;97991.03;10603225;27;20124;-71
2023/05/28 13:38:43;;;;;;;4.35;1.60;;;;;;;23.68;24.90;97991.31;10616375;27;20074;-71
2023/05/28 13:44:04;;;;;;;4.03;1.40;;;;;;;23.60;25.02;97976.91;10601788;27;20039;-71
2023/05/28 13:49:26;;;;;;;5.25;1.50;;;;;;;23.82;24.54;97979.44;10601606;27;20152;-71
2023/05/28 13:54:47;;;;;;;4.25;1.70;;;;;;;23.63;24.54;97969.09;10601543;27;20122;-71
2023/05/28 14:00:09;;;;;;;7.00;1.60;;;;;;;23.53;24.22;97955.34;10601128;27;20043;-71
2023/05/28 14:05:30;;;;;;;;;;;;;;;23.88;24.38;97959.63;10630766;27;20054;-72
2023/05/28 14:10:52;;;;;;;3.03;1.30;;;;;;;23.98;24.02;97961.94;10614018;27;19920;-72
2023/05/28 14:16:13;;;;;;;4.03;1.33;;;;;;;23.90;23.49;97944.69;10586630;27;20043;-71
2023/05/28 14:21:35;;;;;;;3.05;1.40;;;;;;;24.18;23.08;97945.19;10614399;27;20043;-72
2023/05/28 14:26:55;;;;;;;4.35;1.33;;;;;;;24.15;22.62;97929.44;10600446;27;20406;-72
2023/05/28 14:32:16;;;;;;;4.80;1.60;;;;;;;23.87;23.13;97928.97;10599718;27;20054;-71
2023/05/28 14:37:38;;;;;;;5.93;1.67;;;;;;;23.64;23.61;97924.97;10599569;27;20520;-72
2023/05/28 14:42:59;;;;;;;3.28;1.40;;;;;;;23.66;24.15;97928.59;10628777;27;20046;-71
2023/05/28 14:48:21;;;;;;;4.50;1.50;;;;;;;23.70;24.40;97919.38;10599146;27;20039;-71
2023/05/28 14:53:42;;;;;;;3.57;1.47;;;;;;;23.61;24.55;97924.19;10613570;27;20465;-71
2023/05/28 14:59:03;;;;;;;4.70;1.60;;;;;;;23.82;24.41;97924.56;10613064;27;20035;-71
2023/05/28 15:04:24;;;;;;;4.13;1.52;;;;;;;23.68;24.53;97917.22;10612714;27;20055;-71
2023/05/28 15:09:46;;;;;;;4.87;1.50;;;;;;;23.67;24.99;97923.59;10598525;27;20036;-71
2023/05/28 15:15:08;;;;;;;4.53;1.50;;;;;;;23.45;25.28;97923.13;10598034;27;20039;-71
2023/05/28 15:20:30;;;;;;;7.22;1.88;;;;;;;23.28;25.83;97919.25;10612062;27;20046;-71
2023/05/28 15:25:50;;;;;;;4.07;1.85;;;;;;;23.17;26.15;97914.78;10627222;27;20114;-71
2023/05/28 15:31:11;;;;;;;6.10;1.42;;;;;;;22.81;26.17;97915.41;10597301;27;20071;-71
2023/05/28 15:36:32;;;;;;;4.07;1.50;;;;;;;22.77;26.34;97904.63;10596953;27;20059;-71
2023/05/28 15:41:53;;;;;;;6.10;1.73;;;;;;;22.44;26.92;97906.03;10597252;27;20039;-71
2023/05/28 15:47:14;;;;;;;6.40;1.38;;;;;;;22.47;26.96;97899.00;10596517;27;20080;-71
2023/05/28 15:52:35;;;;;;;6.07;2.17;;;;;;;22.50;26.83;97891.25;10626299;27;20043;-71
2023/05/28 15:57:57;;;;;;;6.07;2.00;;;;;;;22.38;26.96;97897.34;10610642;27;20107;-71
2023/05/28 16:03:18;;;;;;;3.95;1.67;;;;;;;22.37;26.81;97892.34;10610308;27;20063;-71
2023/05/28 16:08:40;;;;;;;4.03;1.58;;;;;;;22.04;27.16;97890.81;10625904;27;20036;-71
2023/05/28 16:14:00;;;;;;;3.97;1.25;;;;;;;22.13;27.67;97886.81;10610109;27;20045;-71
2023/05/28 16:19:22;;;;;;;4.32;1.90;;;;;;;21.97;27.99;97887.81;10610131;27;20070;-71
2023/05/28 16:24:43;;;;;;;6.18;1.77;;;;;;;21.91;28.27;97879.16;10609554;27;20087;-71
2023/05/28 16:30:05;;;;;;;6.30;2.03;;;;;;;21.85;28.37;97884.69;10609677;27;20374;-71
2023/05/28 16:35:26;;;;;;;3.22;1.60;;;;;;;21.84;28.61;97879.69;10608932;27;20101;-70
2023/05/28 16:40:47;;;;;;;3.85;1.70;;;;;;;21.86;29.01;97877.59;10609208;27;20054;-71
2023/05/28 16:46:08;;;;;;;5.00;1.75;;;;;;;21.92;29.06;97874.19;10609382;27;20167;-71
2023/05/28 16:51:30;;;;;;;5.63;1.70;;;;;;;22.02;29.06;97874.44;10594847;28;20047;-71
2023/05/28 16:56:51;;;;;;;6.30;1.90;;;;;;;21.94;28.91;97866.44;10595075;28;20038;-70
2023/05/28 17:02:13;;;;;;;5.18;1.95;;;;;;;21.88;29.38;97874.81;10608259;27;20062;-71
2023/05/28 17:07:34;;;;;;;4.70;1.75;;;;;;;21.80;29.48;97868.91;10608807;28;20095;-71
2023/05/28 17:12:55;;;;;;;2.85;1.45;;;;;;;21.71;29.88;97873.69;10594344;28;20051;-71
2023/05/28 17:18:16;;;;;;;4.68;2.03;;;;;;;21.57;30.01;97869.75;10623892;28;20046;-71
2023/05/28 17:23:38;;;;;;;6.10;2.00;;;;;;;21.51;30.42;97873.13;10594478;28;20418;-71
2023/05/28 17:28:59;;;;;;;4.72;1.70;;;;;;;21.40;30.49;97874.25;10580090;28;20491;-71
2023/05/28 17:34:21;;;;;;;5.63;2.00;;;;;;;21.32;30.74;97880.44;10594342;28;20039;-71
2023/05/28 17:39:42;;;;;;;5.43;1.83;;;;;;;21.19;30.76;97878.63;10607699;28;20345;-71
2023/05/28 17:45:03;;;;;;;5.32;1.70;;;;;;;21.17;31.12;97881.41;10595787;27;20549;-71
2023/05/28 17:50:25;;;;;;;5.18;1.85;;;;;;;21.08;31.18;97874.06;10601669;27;20488;-71
2023/05/28 17:55:46;;;;;;;5.82;1.58;;;;;;;20.98;31.33;97882.28;10601410;27;20092;-71
2023/05/28 18:01:10;;;;;;;5.50;1.90;;;;;;;20.81;31.90;97870.47;10630792;27;20059;-71
2023/05/28 18:06:32;;;;;;;6.88;1.70;;;;;;;20.69;31.74;97875.06;10614471;27;20055;-71
2023/05/28 18:11:52;;;;;;;5.85;1.98;;;;;;;20.53;32.05;97870.34;10615156;27;20043;-71
2023/05/28 18:17:13;;;;;;;6.80;2.05;;;;;;;20.42;32.22;97874.22;10614629;27;20392;-71
2023/05/28 18:22:35;;;;;;;3.38;1.77;;;;;;;20.30;32.55;97880.25;10629924;27;20080;-71
2023/05/28 18:27:57;;;;;;;5.60;2.30;;;;;;;20.16;32.74;97890.41;10600297;27;20055;-71
2023/05/28 18:33:19;;;;;;;8.55;2.45;;;;;;;19.96;33.19;97879.84;10614344;27;20066;-71
2023/05/28 18:38:40;;;;;;;5.97;2.33;;;;;;;19.81;33.45;97880.06;10585694;27;20430;-71
2023/05/28 18:44:01;;;;;;;6.22;2.42;;;;;;;19.66;33.90;97890.91;10613537;27;20046;-71
2023/05/28 18:49:22;;;;;;;8.35;5.32;;;;;;;19.49;34.20;97897.34;10613508;27;20063;-71
2023/05/28 18:54:44;;;;;;;5.55;3.60;;;;;;;19.32;34.66;97906.66;10613096;27;20104;-71
2023/05/28 19:00:06;;;;;;;5.05;2.63;;;;;;;19.07;34.95;97905.78;10628394;27;20050;-70
2023/05/28 19:05:27;;;;;;;6.43;3.00;;;;;;;18.83;35.46;97910.53;10612758;27;20082;-71
2023/05/28 19:10:50;;;;;;;6.68;2.53;;;;;;;18.63;36.04;97915.38;10598518;27;20061;-71
2023/05/28 19:16:11;;;;;;;6.20;2.45;;;;;;;18.48;36.30;97931.06;10627917;27;20481;-71
2023/05/28 19:21:33;;;;;;;4.93;2.28;;;;;;;18.21;36.84;97934.91;10627320;27;20039;-71
2023/05/28 19:26:56;;;;;;;6.18;2.60;;;;;;;18.07;37.34;97934.34;10612156;27;20095;-71
2023/05/28 19:32:17;;;;;;;5.78;3.05;;;;;;;17.91;37.98;97940.78;10626923;27;20401;-71
2023/05/28 19:37:38;;;;;;;8.55;2.17;;;;;;;17.80;37.95;97944.53;10597290;27;20039;-70
2023/05/28 19:42:59;;;;;;;6.25;2.20;;;;;;;17.72;38.41;97956.22;10596986;27;20070;-70
2023/05/28 19:48:20;;;;;;;8.30;2.58;;;;;;;17.61;38.69;97962.75;10611149;27;20066;-70
2023/05/28 19:53:41;;;;;;;7.60;2.60;;;;;;;17.50;39.47;97966.50;10596909;27;20063;-70
2023/05/28 19:59:01;;;;;;;5.53;2.22;;;;;;;17.45;39.79;97962.06;10596457;27;20046;-71
2023/05/28 20:04:22;;;;;;;6.03;2.42;;;;;;;17.37;40.29;97965.25;10610260;27;20082;-71
2023/05/28 20:09:42;;;;;;;5.53;1.77;;;;;;;17.31;39.96;97961.44;10595317;27;20058;-71
2023/05/28 20:15:03;;;;;;;5.68;2.38;;;;;;;17.22;40.32;97974.44;10595912;27;20495;-71
2023/05/28 20:20:24;;;;;;;8.18;2.17;;;;;;;17.15;40.58;97975.53;10595881;27;20089;-71
2023/05/28 20:25:46;;;;;;;4.72;2.13;;;;;;;17.05;40.96;97983.53;10595856;27;20070;-71
2023/05/28 20:31:06;;;;;;;4.00;2.10;;;;;;;16.98;41.32;97990.25;10609862;27;20043;-70
2023/05/28 20:36:28;;;;;;;5.10;2.22;;;;;;;16.95;41.27;97988.69;10624749;27;20476;-71
2023/05/28 20:41:50;;;;;;;4.72;1.88;;;;;;;16.88;41.97;97982.78;10624666;27;20050;-71
2023/05/28 20:47:12;;;;;;;6.20;2.13;;;;;;;16.82;42.26;97990.97;10624536;27;20081;-71
2023/05/28 20:52:32;;;;;;;14.27;6.38;;;;;;;16.76;42.35;97990.66;10594662;28;20096;-71
2023/05/28 20:57:54;;;;;;;7.40;2.90;;;;;;;16.69;42.73;97993.81;10594575;28;20074;-71
2023/05/28 21:03:15;;;;;;;6.35;1.90;;;;;;;16.60;42.66;98001.16;10609133;27;20527;-71
2023/05/28 21:08:36;;;;;;;6.75;2.10;;;;;;;16.51;42.94;98002.13;10608955;28;20107;-70
2023/05/28 21:13:56;;;;;;;7.88;2.20;;;;;;;16.37;43.19;98001.41;10594570;28;20096;-70
2023/05/28 21:19:17;;;;;;;6.72;1.88;;;;;;;16.30;43.09;98008.84;10610860;27;20072;-70
2023/05/28 21:24:38;;;;;;;4.60;1.90;;;;;;;16.21;43.39;98009.78;10602390;27;20041;-70
2023/05/28 21:30:02;;;;;;;4.90;2.20;;;;;;;16.12;43.72;98011.50;10588333;27;20110;-70
2023/05/28 21:35:22;;;;;;;4.63;2.38;;;;;;;16.01;44.12;98006.69;10616733;27;20129;-70
2023/05/28 21:40:43;;;;;;;6.03;2.83;;;;;;;15.95;44.39;98015.56;10616122;27;20058;-70
2023/05/28 21:46:04;;;;;;;7.40;2.42;;;;;;;15.87;44.57;98005.97;10587581;27;20069;-70
2023/05/28 21:51:25;;;;;;;8.13;3.00;;;;;;;15.77;44.51;98008.28;10601688;27;20560;-70
2023/05/28 21:56:46;;;;;;;6.35;2.65;;;;;;;15.71;44.70;98012.22;10615913;27;20485;-70
2023/05/28 22:02:06;;;;;;;7.10;2.40;;;;;;;15.60;44.65;98018.69;10614929;27;20110;-70
2023/05/28 22:07:27;;;;;;;4.57;1.83;;;;;;;15.55;44.67;98011.38;10615464;27;20480;-70
2023/05/28 22:12:49;;;;;;;5.30;2.15;;;;;;;15.49;45.08;98008.25;10615056;27;20071;-70
2023/05/28 22:18:13;;;;;;;5.43;1.85;;;;;;;15.42;45.27;98010.00;10615136;27;20046;-70
2023/05/28 22:23:34;;;;;;;5.50;1.88;;;;;;;15.35;45.50;98007.50;10615327;27;20134;-70
2023/05/28 22:28:55;;;;;;;5.38;2.00;;;;;;;15.22;45.80;98013.81;10614325;27;20062;-70
2023/05/28 22:34:19;;;;;;;;;;;;;;;15.08;46.33;98008.91;10614427;27;20039;-70
2023/05/28 22:39:40;;;;;;;8.80;2.35;;;;;;;15.01;46.41;98004.28;10614141;27;20014;-70
2023/05/28 22:45:03;;;;;;;7.78;2.13;;;;;;;14.89;46.46;97995.94;10629293;27;20168;-70
2023/05/28 22:50:24;;;;;;;3.95;1.83;;;;;;;14.78;46.46;98004.44;10614400;27;20148;-70
2023/05/28 22:55:47;;;;;;;3.30;1.48;;;;;;;14.67;46.78;98008.75;10613464;27;20488;-70
2023/05/28 23:01:08;;;;;;;8.45;2.22;;;;;;;14.59;46.73;98005.50;10599358;27;20120;-70
2023/05/28 23:06:30;;;;;;;4.45;2.00;;;;;;;14.54;47.00;98007.34;10598493;27;20180;-70
2023/05/28 23:11:51;;;;;;;3.65;1.50;;;;;;;14.48;47.16;98011.91;10612905;27;20108;-70
2023/05/28 23:17:16;;;;;;;6.15;2.30;;;;;;;14.38;47.21;98014.84;10612227;27;20119;-70
2023/05/28 23:22:37;;;;;;;3.47;1.73;;;;;;;14.29;47.44;98008.03;10613118;27;20389;-70
2023/05/28 23:27:57;;;;;;;4.80;1.60;;;;;;;14.24;47.55;98006.31;10597629;27;20502;-70
2023/05/28 23:33:18;;;;;;;3.47;1.48;;;;;;;14.22;47.64;98008.28;10611641;27;20110;-70
2023/05/28 23:38:38;;;;;;;5.10;2.17;;;;;;;14.19;47.65;98012.34;10583317;27;20160;-70
2023/05/28 23:44:00;;;;;;;2.42;1.35;;;;;;;14.03;47.74;98009.31;10611244;27;20074;-70
2023/05/28 23:49:20;;;;;;;3.80;1.85;;;;;;;13.98;48.22;97999.19;10611569;27;20126;-70
2023/05/28 23:54:41;;;;;;;3.25;1.33;;;;;;;13.93;48.25;97992.63;10611066;27;20491;-70
